sensor_id;sensor_type;location;lat;lon;timestamp;P1;durP1;ratioP1;P2;durP2;ratioP2
2213;SDS011;1113;42.018;23.986;2023-07-29T00:00:13;6.50;;;5.77;;
2213;SDS011;1113;42.018;23.986;2023-07-29T00:02:40;6.90;;;5.80;;
2213;SDS011;1113;42.018;23.986;2023-07-29T00:05:08;7.27;;;4.93;;
2213;SDS011;1113;42.018;23.986;2023-07-29T00:07:35;7.37;;;5.97;;
2213;SDS011;1113;42.018;23.986;2023-07-29T00:10:02;7.23;;;5.77;;
2213;SDS011;1113;42.018;23.986;2023-07-29T00:12:29;5.70;;;5.10;;
2213;SDS011;1113;42.018;23.986;2023-07-29T00:14:56;5.00;;;4.50;;
2213;SDS011;1113;42.018;23.986;2023-07-29T00:17:23;6.70;;;5.37;;
2213;SDS011;1113;42.018;23.986;2023-07-29T00:19:50;7.83;;;5.50;;
2213;SDS011;1113;42.018;23.986;2023-07-29T00:22:18;6.43;;;5.73;;
2213;SDS011;1113;42.018;23.986;2023-07-29T00:24:50;10.23;;;5.47;;
2213;SDS011;1113;42.018;23.986;2023-07-29T00:27:18;6.30;;;5.20;;
2213;SDS011;1113;42.018;23.986;2023-07-29T00:29:45;8.30;;;5.70;;
2213;SDS011;1113;42.018;23.986;2023-07-29T00:32:12;7.83;;;5.63;;
2213;SDS011;1113;42.018;23.986;2023-07-29T00:34:39;7.60;;;5.10;;
2213;SDS011;1113;42.018;23.986;2023-07-29T00:37:06;7.23;;;5.90;;
2213;SDS011;1113;42.018;23.986;2023-07-29T00:39:34;17.33;;;6.47;;
2213;SDS011;1113;42.018;23.986;2023-07-29T00:42:01;8.87;;;5.90;;
2213;SDS011;1113;42.018;23.986;2023-07-29T00:44:28;7.30;;;6.30;;
2213;SDS011;1113;42.018;23.986;2023-07-29T00:46:56;9.00;;;6.53;;
2213;SDS011;1113;42.018;23.986;2023-07-29T00:49:23;9.87;;;6.30;;
2213;SDS011;1113;42.018;23.986;2023-07-29T00:51:50;7.93;;;6.10;;
2213;SDS011;1113;42.018;23.986;2023-07-29T00:54:17;8.57;;;6.30;;
2213;SDS011;1113;42.018;23.986;2023-07-29T00:56:45;7.20;;;5.87;;
2213;SDS011;1113;42.018;23.986;2023-07-29T00:59:12;7.40;;;5.93;;
2213;SDS011;1113;42.018;23.986;2023-07-29T01:01:39;6.30;;;5.57;;
2213;SDS011;1113;42.018;23.986;2023-07-29T01:04:06;6.80;;;5.90;;
2213;SDS011;1113;42.018;23.986;2023-07-29T01:06:34;7.83;;;6.43;;
2213;SDS011;1113;42.018;23.986;2023-07-29T01:09:06;6.40;;;5.80;;
2213;SDS011;1113;42.018;23.986;2023-07-29T01:11:44;7.73;;;6.50;;
2213;SDS011;1113;42.018;23.986;2023-07-29T01:14:16;6.73;;;6.03;;
2213;SDS011;1113;42.018;23.986;2023-07-29T01:16:49;8.70;;;5.70;;
2213;SDS011;1113;42.018;23.986;2023-07-29T01:19:22;7.63;;;6.77;;
2213;SDS011;1113;42.018;23.986;2023-07-29T01:21:53;6.47;;;5.40;;
2213;SDS011;1113;42.018;23.986;2023-07-29T01:24:22;7.00;;;6.37;;
2213;SDS011;1113;42.018;23.986;2023-07-29T01:26:49;7.17;;;5.90;;
2213;SDS011;1113;42.018;23.986;2023-07-29T01:29:15;6.60;;;6.00;;
2213;SDS011;1113;42.018;23.986;2023-07-29T01:31:43;7.03;;;6.20;;
2213;SDS011;1113;42.018;23.986;2023-07-29T01:34:12;7.27;;;6.20;;
2213;SDS011;1113;42.018;23.986;2023-07-29T01:36:40;8.00;;;7.20;;
2213;SDS011;1113;42.018;23.986;2023-07-29T01:39:08;7.37;;;6.10;;
2213;SDS011;1113;42.018;23.986;2023-07-29T01:41:38;7.00;;;6.10;;
2213;SDS011;1113;42.018;23.986;2023-07-29T01:44:05;7.90;;;6.80;;
2213;SDS011;1113;42.018;23.986;2023-07-29T01:46:33;6.90;;;6.20;;
2213;SDS011;1113;42.018;23.986;2023-07-29T01:49:00;7.57;;;6.77;;
2213;SDS011;1113;42.018;23.986;2023-07-29T01:51:27;10.97;;;6.80;;
2213;SDS011;1113;42.018;23.986;2023-07-29T01:53:53;7.70;;;6.77;;
2213;SDS011;1113;42.018;23.986;2023-07-29T01:56:21;9.00;;;6.67;;
2213;SDS011;1113;42.018;23.986;2023-07-29T01:58:49;7.13;;;6.20;;
2213;SDS011;1113;42.018;23.986;2023-07-29T02:01:16;6.97;;;6.27;;
2213;SDS011;1113;42.018;23.986;2023-07-29T02:03:43;8.73;;;6.20;;
2213;SDS011;1113;42.018;23.986;2023-07-29T02:06:10;7.67;;;6.50;;
2213;SDS011;1113;42.018;23.986;2023-07-29T02:08:37;7.93;;;6.90;;
2213;SDS011;1113;42.018;23.986;2023-07-29T02:11:06;8.47;;;7.57;;
2213;SDS011;1113;42.018;23.986;2023-07-29T02:13:32;8.70;;;7.27;;
2213;SDS011;1113;42.018;23.986;2023-07-29T02:16:01;7.90;;;6.67;;
2213;SDS011;1113;42.018;23.986;2023-07-29T02:18:27;7.07;;;6.37;;
2213;SDS011;1113;42.018;23.986;2023-07-29T02:20:54;7.93;;;6.33;;
2213;SDS011;1113;42.018;23.986;2023-07-29T02:23:21;7.63;;;6.20;;
2213;SDS011;1113;42.018;23.986;2023-07-29T02:25:48;8.10;;;6.80;;
2213;SDS011;1113;42.018;23.986;2023-07-29T02:28:15;7.13;;;6.43;;
2213;SDS011;1113;42.018;23.986;2023-07-29T02:30:42;8.13;;;6.70;;
2213;SDS011;1113;42.018;23.986;2023-07-29T02:33:11;8.17;;;7.20;;
2213;SDS011;1113;42.018;23.986;2023-07-29T02:35:38;8.93;;;6.40;;
2213;SDS011;1113;42.018;23.986;2023-07-29T02:38:05;11.40;;;7.90;;
2213;SDS011;1113;42.018;23.986;2023-07-29T02:40:32;8.00;;;7.00;;
2213;SDS011;1113;42.018;23.986;2023-07-29T02:42:59;8.07;;;7.13;;
2213;SDS011;1113;42.018;23.986;2023-07-29T02:45:26;16.33;;;8.23;;
2213;SDS011;1113;42.018;23.986;2023-07-29T02:47:52;9.90;;;7.47;;
2213;SDS011;1113;42.018;23.986;2023-07-29T02:50:21;11.30;;;7.50;;
2213;SDS011;1113;42.018;23.986;2023-07-29T02:52:48;8.03;;;7.20;;
2213;SDS011;1113;42.018;23.986;2023-07-29T02:55:15;7.90;;;6.50;;
2213;SDS011;1113;42.018;23.986;2023-07-29T02:57:41;7.93;;;6.60;;
2213;SDS011;1113;42.018;23.986;2023-07-29T03:00:09;7.90;;;6.63;;
2213;SDS011;1113;42.018;23.986;2023-07-29T03:02:36;11.10;;;7.13;;
2213;SDS011;1113;42.018;23.986;2023-07-29T03:05:04;11.03;;;7.17;;
2213;SDS011;1113;42.018;23.986;2023-07-29T03:07:32;7.60;;;6.80;;
2213;SDS011;1113;42.018;23.986;2023-07-29T03:09:59;8.13;;;7.20;;
2213;SDS011;1113;42.018;23.986;2023-07-29T03:12:26;7.87;;;6.70;;
2213;SDS011;1113;42.018;23.986;2023-07-29T03:14:53;9.40;;;7.50;;
2213;SDS011;1113;42.018;23.986;2023-07-29T03:17:21;10.40;;;8.03;;
2213;SDS011;1113;42.018;23.986;2023-07-29T03:19:48;8.73;;;7.50;;
2213;SDS011;1113;42.018;23.986;2023-07-29T03:22:15;9.20;;;8.20;;
2213;SDS011;1113;42.018;23.986;2023-07-29T03:24:43;10.23;;;8.50;;
2213;SDS011;1113;42.018;23.986;2023-07-29T03:27:10;8.57;;;6.90;;
2213;SDS011;1113;42.018;23.986;2023-07-29T03:29:37;9.30;;;7.93;;
2213;SDS011;1113;42.018;23.986;2023-07-29T03:32:04;11.73;;;8.70;;
2213;SDS011;1113;42.018;23.986;2023-07-29T03:34:31;9.10;;;8.00;;
2213;SDS011;1113;42.018;23.986;2023-07-29T03:36:58;9.20;;;7.40;;
2213;SDS011;1113;42.018;23.986;2023-07-29T03:39:25;8.87;;;7.60;;
2213;SDS011;1113;42.018;23.986;2023-07-29T03:41:53;8.33;;;7.00;;
2213;SDS011;1113;42.018;23.986;2023-07-29T03:44:20;9.47;;;7.70;;
2213;SDS011;1113;42.018;23.986;2023-07-29T03:46:47;8.40;;;7.50;;
2213;SDS011;1113;42.018;23.986;2023-07-29T03:49:14;11.20;;;8.30;;
2213;SDS011;1113;42.018;23.986;2023-07-29T03:51:41;12.90;;;9.97;;
2213;SDS011;1113;42.018;23.986;2023-07-29T03:54:08;15.10;;;9.77;;
2213;SDS011;1113;42.018;23.986;2023-07-29T03:56:35;14.00;;;9.23;;
2213;SDS011;1113;42.018;23.986;2023-07-29T03:59:03;16.43;;;9.73;;
2213;SDS011;1113;42.018;23.986;2023-07-29T04:01:30;13.50;;;9.80;;
2213;SDS011;1113;42.018;23.986;2023-07-29T04:03:57;12.53;;;10.50;;
2213;SDS011;1113;42.018;23.986;2023-07-29T04:06:24;13.93;;;9.80;;
2213;SDS011;1113;42.018;23.986;2023-07-29T04:08:51;16.10;;;9.93;;
2213;SDS011;1113;42.018;23.986;2023-07-29T04:11:18;14.67;;;10.27;;
2213;SDS011;1113;42.018;23.986;2023-07-29T04:13:45;16.67;;;10.47;;
2213;SDS011;1113;42.018;23.986;2023-07-29T04:16:13;13.47;;;10.90;;
2213;SDS011;1113;42.018;23.986;2023-07-29T04:18:40;14.37;;;10.43;;
2213;SDS011;1113;42.018;23.986;2023-07-29T04:21:07;11.47;;;9.40;;
2213;SDS011;1113;42.018;23.986;2023-07-29T04:23:34;14.40;;;10.40;;
2213;SDS011;1113;42.018;23.986;2023-07-29T04:26:01;10.77;;;9.20;;
2213;SDS011;1113;42.018;23.986;2023-07-29T04:28:28;9.63;;;8.63;;
2213;SDS011;1113;42.018;23.986;2023-07-29T04:30:55;11.30;;;9.63;;
2213;SDS011;1113;42.018;23.986;2023-07-29T04:33:23;11.23;;;9.53;;
2213;SDS011;1113;42.018;23.986;2023-07-29T04:35:50;9.50;;;8.10;;
2213;SDS011;1113;42.018;23.986;2023-07-29T04:38:17;8.57;;;7.57;;
2213;SDS011;1113;42.018;23.986;2023-07-29T04:40:43;9.60;;;8.37;;
2213;SDS011;1113;42.018;23.986;2023-07-29T04:43:10;8.87;;;7.97;;
2213;SDS011;1113;42.018;23.986;2023-07-29T04:45:42;9.20;;;8.30;;
2213;SDS011;1113;42.018;23.986;2023-07-29T04:48:08;9.60;;;8.07;;
2213;SDS011;1113;42.018;23.986;2023-07-29T04:50:37;9.40;;;8.40;;
2213;SDS011;1113;42.018;23.986;2023-07-29T04:53:04;9.37;;;8.40;;
2213;SDS011;1113;42.018;23.986;2023-07-29T04:55:30;9.20;;;8.00;;
2213;SDS011;1113;42.018;23.986;2023-07-29T04:57:57;9.30;;;7.83;;
2213;SDS011;1113;42.018;23.986;2023-07-29T05:00:25;10.30;;;8.23;;
2213;SDS011;1113;42.018;23.986;2023-07-29T05:02:52;11.33;;;8.30;;
2213;SDS011;1113;42.018;23.986;2023-07-29T05:05:19;10.10;;;7.63;;
2213;SDS011;1113;42.018;23.986;2023-07-29T05:07:47;10.43;;;7.50;;
2213;SDS011;1113;42.018;23.986;2023-07-29T05:10:14;9.57;;;7.87;;
2213;SDS011;1113;42.018;23.986;2023-07-29T05:12:41;8.63;;;7.40;;
2213;SDS011;1113;42.018;23.986;2023-07-29T05:15:08;12.27;;;8.33;;
2213;SDS011;1113;42.018;23.986;2023-07-29T05:17:36;12.00;;;8.90;;
2213;SDS011;1113;42.018;23.986;2023-07-29T05:20:03;11.40;;;8.40;;
2213;SDS011;1113;42.018;23.986;2023-07-29T05:22:30;11.87;;;8.73;;
2213;SDS011;1113;42.018;23.986;2023-07-29T05:24:59;8.93;;;7.33;;
2213;SDS011;1113;42.018;23.986;2023-07-29T05:27:26;8.00;;;6.93;;
2213;SDS011;1113;42.018;23.986;2023-07-29T05:29:53;7.47;;;6.77;;
2213;SDS011;1113;42.018;23.986;2023-07-29T05:32:19;8.80;;;7.60;;
2213;SDS011;1113;42.018;23.986;2023-07-29T05:34:46;9.23;;;7.20;;
2213;SDS011;1113;42.018;23.986;2023-07-29T05:37:13;12.83;;;7.40;;
2213;SDS011;1113;42.018;23.986;2023-07-29T05:39:40;13.00;;;7.10;;
2213;SDS011;1113;42.018;23.986;2023-07-29T05:42:08;12.33;;;6.53;;
2213;SDS011;1113;42.018;23.986;2023-07-29T05:44:35;11.53;;;7.03;;
2213;SDS011;1113;42.018;23.986;2023-07-29T05:47:02;7.80;;;7.00;;
2213;SDS011;1113;42.018;23.986;2023-07-29T05:49:29;7.13;;;6.17;;
2213;SDS011;1113;42.018;23.986;2023-07-29T05:51:56;11.90;;;6.53;;
2213;SDS011;1113;42.018;23.986;2023-07-29T05:54:23;11.30;;;6.80;;
2213;SDS011;1113;42.018;23.986;2023-07-29T05:56:50;7.07;;;6.10;;
2213;SDS011;1113;42.018;23.986;2023-07-29T05:59:18;8.30;;;6.43;;
2213;SDS011;1113;42.018;23.986;2023-07-29T06:01:45;8.90;;;7.00;;
2213;SDS011;1113;42.018;23.986;2023-07-29T06:04:12;13.70;;;7.80;;
2213;SDS011;1113;42.018;23.986;2023-07-29T06:06:39;7.77;;;6.30;;
2213;SDS011;1113;42.018;23.986;2023-07-29T06:09:06;6.83;;;5.70;;
2213;SDS011;1113;42.018;23.986;2023-07-29T06:11:32;10.27;;;7.37;;
2213;SDS011;1113;42.018;23.986;2023-07-29T06:13:59;9.50;;;7.20;;
2213;SDS011;1113;42.018;23.986;2023-07-29T06:16:28;6.90;;;6.20;;
2213;SDS011;1113;42.018;23.986;2023-07-29T06:18:55;6.50;;;5.90;;
2213;SDS011;1113;42.018;23.986;2023-07-29T06:21:21;8.10;;;7.10;;
2213;SDS011;1113;42.018;23.986;2023-07-29T06:23:48;8.87;;;6.83;;
2213;SDS011;1113;42.018;23.986;2023-07-29T06:26:15;8.83;;;6.90;;
2213;SDS011;1113;42.018;23.986;2023-07-29T06:28:42;7.43;;;5.90;;
2213;SDS011;1113;42.018;23.986;2023-07-29T06:31:09;6.27;;;5.67;;
2213;SDS011;1113;42.018;23.986;2023-07-29T06:33:38;8.27;;;6.27;;
2213;SDS011;1113;42.018;23.986;2023-07-29T06:36:05;5.87;;;5.27;;
2213;SDS011;1113;42.018;23.986;2023-07-29T06:38:32;6.77;;;5.43;;
2213;SDS011;1113;42.018;23.986;2023-07-29T06:40:58;6.73;;;6.03;;
2213;SDS011;1113;42.018;23.986;2023-07-29T06:43:25;13.57;;;6.43;;
2213;SDS011;1113;42.018;23.986;2023-07-29T06:45:52;7.00;;;6.30;;
2213;SDS011;1113;42.018;23.986;2023-07-29T06:48:20;5.73;;;5.23;;
2213;SDS011;1113;42.018;23.986;2023-07-29T06:50:48;6.93;;;5.03;;
2213;SDS011;1113;42.018;23.986;2023-07-29T06:53:16;5.77;;;5.17;;
2213;SDS011;1113;42.018;23.986;2023-07-29T06:55:43;6.53;;;5.67;;
2213;SDS011;1113;42.018;23.986;2023-07-29T06:58:10;7.13;;;5.73;;
2213;SDS011;1113;42.018;23.986;2023-07-29T07:00:37;6.20;;;5.43;;
2213;SDS011;1113;42.018;23.986;2023-07-29T07:03:04;8.40;;;5.70;;
2213;SDS011;1113;42.018;23.986;2023-07-29T07:05:31;5.00;;;4.33;;
2213;SDS011;1113;42.018;23.986;2023-07-29T07:07:59;12.77;;;6.83;;
2213;SDS011;1113;42.018;23.986;2023-07-29T07:10:26;6.60;;;5.50;;
2213;SDS011;1113;42.018;23.986;2023-07-29T07:12:53;5.50;;;4.90;;
2213;SDS011;1113;42.018;23.986;2023-07-29T07:15:20;7.10;;;5.27;;
2213;SDS011;1113;42.018;23.986;2023-07-29T07:17:47;6.23;;;4.60;;
2213;SDS011;1113;42.018;23.986;2023-07-29T07:20:14;5.33;;;4.83;;
2213;SDS011;1113;42.018;23.986;2023-07-29T07:22:41;6.20;;;5.60;;
2213;SDS011;1113;42.018;23.986;2023-07-29T07:25:09;7.10;;;5.07;;
2213;SDS011;1113;42.018;23.986;2023-07-29T07:27:36;7.17;;;4.80;;
2213;SDS011;1113;42.018;23.986;2023-07-29T07:30:03;8.23;;;5.10;;
2213;SDS011;1113;42.018;23.986;2023-07-29T07:32:30;7.10;;;4.67;;
2213;SDS011;1113;42.018;23.986;2023-07-29T07:34:57;5.97;;;4.77;;
2213;SDS011;1113;42.018;23.986;2023-07-29T07:37:24;7.97;;;4.93;;
2213;SDS011;1113;42.018;23.986;2023-07-29T07:39:51;5.83;;;4.93;;
2213;SDS011;1113;42.018;23.986;2023-07-29T07:42:19;6.97;;;4.33;;
2213;SDS011;1113;42.018;23.986;2023-07-29T07:44:46;5.00;;;3.70;;
2213;SDS011;1113;42.018;23.986;2023-07-29T07:47:13;4.57;;;3.93;;
2213;SDS011;1113;42.018;23.986;2023-07-29T07:49:40;5.00;;;4.10;;
2213;SDS011;1113;42.018;23.986;2023-07-29T07:52:07;8.17;;;3.90;;
2213;SDS011;1113;42.018;23.986;2023-07-29T07:54:34;4.87;;;3.73;;
2213;SDS011;1113;42.018;23.986;2023-07-29T07:57:01;5.30;;;4.00;;
2213;SDS011;1113;42.018;23.986;2023-07-29T07:59:29;4.70;;;3.90;;
2213;SDS011;1113;42.018;23.986;2023-07-29T08:01:56;4.10;;;3.13;;
2213;SDS011;1113;42.018;23.986;2023-07-29T08:04:23;3.80;;;3.50;;
2213;SDS011;1113;42.018;23.986;2023-07-29T08:06:50;4.83;;;3.90;;
2213;SDS011;1113;42.018;23.986;2023-07-29T08:09:17;4.77;;;4.00;;
2213;SDS011;1113;42.018;23.986;2023-07-29T08:11:44;4.67;;;3.80;;
2213;SDS011;1113;42.018;23.986;2023-07-29T08:14:10;5.33;;;3.43;;
2213;SDS011;1113;42.018;23.986;2023-07-29T08:16:39;5.93;;;3.73;;
2213;SDS011;1113;42.018;23.986;2023-07-29T08:19:06;4.20;;;3.80;;
2213;SDS011;1113;42.018;23.986;2023-07-29T08:21:35;6.80;;;3.93;;
2213;SDS011;1113;42.018;23.986;2023-07-29T08:24:01;10.00;;;4.30;;
2213;SDS011;1113;42.018;23.986;2023-07-29T08:26:28;5.50;;;3.63;;
2213;SDS011;1113;42.018;23.986;2023-07-29T08:28:55;5.57;;;4.00;;
2213;SDS011;1113;42.018;23.986;2023-07-29T08:31:22;4.07;;;3.23;;
2213;SDS011;1113;42.018;23.986;2023-07-29T08:33:51;4.07;;;3.50;;
2213;SDS011;1113;42.018;23.986;2023-07-29T08:36:18;4.87;;;3.60;;
2213;SDS011;1113;42.018;23.986;2023-07-29T08:38:44;11.20;;;3.50;;
2213;SDS011;1113;42.018;23.986;2023-07-29T08:41:13;3.43;;;3.10;;
2213;SDS011;1113;42.018;23.986;2023-07-29T08:43:42;3.80;;;3.50;;
2213;SDS011;1113;42.018;23.986;2023-07-29T08:46:10;4.50;;;3.33;;
2213;SDS011;1113;42.018;23.986;2023-07-29T08:48:39;3.70;;;3.23;;
2213;SDS011;1113;42.018;23.986;2023-07-29T08:51:09;4.30;;;3.23;;
2213;SDS011;1113;42.018;23.986;2023-07-29T08:53:36;4.83;;;3.60;;
2213;SDS011;1113;42.018;23.986;2023-07-29T08:56:03;3.33;;;2.90;;
2213;SDS011;1113;42.018;23.986;2023-07-29T08:58:30;4.00;;;3.20;;
2213;SDS011;1113;42.018;23.986;2023-07-29T09:00:57;3.83;;;3.30;;
2213;SDS011;1113;42.018;23.986;2023-07-29T09:03:24;4.37;;;3.00;;
2213;SDS011;1113;42.018;23.986;2023-07-29T09:05:51;4.60;;;3.57;;
2213;SDS011;1113;42.018;23.986;2023-07-29T09:08:21;4.80;;;3.37;;
2213;SDS011;1113;42.018;23.986;2023-07-29T09:10:48;4.43;;;3.33;;
2213;SDS011;1113;42.018;23.986;2023-07-29T09:13:15;4.80;;;3.47;;
2213;SDS011;1113;42.018;23.986;2023-07-29T09:15:42;4.07;;;2.83;;
2213;SDS011;1113;42.018;23.986;2023-07-29T09:18:09;3.57;;;3.00;;
2213;SDS011;1113;42.018;23.986;2023-07-29T09:20:36;8.10;;;3.80;;
2213;SDS011;1113;42.018;23.986;2023-07-29T09:23:03;6.50;;;2.93;;
2213;SDS011;1113;42.018;23.986;2023-07-29T09:25:31;9.53;;;2.90;;
2213;SDS011;1113;42.018;23.986;2023-07-29T09:27:58;3.97;;;3.20;;
2213;SDS011;1113;42.018;23.986;2023-07-29T09:30:26;7.13;;;3.57;;
2213;SDS011;1113;42.018;23.986;2023-07-29T09:32:54;5.30;;;3.13;;
2213;SDS011;1113;42.018;23.986;2023-07-29T09:35:21;4.07;;;2.90;;
2213;SDS011;1113;42.018;23.986;2023-07-29T09:37:48;12.87;;;2.93;;
2213;SDS011;1113;42.018;23.986;2023-07-29T09:40:16;4.23;;;3.20;;
2213;SDS011;1113;42.018;23.986;2023-07-29T09:42:51;3.60;;;2.23;;
2213;SDS011;1113;42.018;23.986;2023-07-29T09:45:21;4.53;;;2.70;;
2213;SDS011;1113;42.018;23.986;2023-07-29T09:47:48;5.17;;;2.07;;
2213;SDS011;1113;42.018;23.986;2023-07-29T09:50:16;6.00;;;3.07;;
2213;SDS011;1113;42.018;23.986;2023-07-29T09:52:43;2.70;;;2.00;;
2213;SDS011;1113;42.018;23.986;2023-07-29T09:55:10;2.57;;;1.97;;
2213;SDS011;1113;42.018;23.986;2023-07-29T09:57:38;4.90;;;2.07;;
2213;SDS011;1113;42.018;23.986;2023-07-29T10:00:07;12.40;;;3.43;;
2213;SDS011;1113;42.018;23.986;2023-07-29T10:02:38;3.57;;;2.33;;
2213;SDS011;1113;42.018;23.986;2023-07-29T10:05:05;3.43;;;2.03;;
2213;SDS011;1113;42.018;23.986;2023-07-29T10:07:33;2.53;;;2.17;;
2213;SDS011;1113;42.018;23.986;2023-07-29T10:10:00;5.70;;;2.27;;
2213;SDS011;1113;42.018;23.986;2023-07-29T10:12:28;5.17;;;2.13;;
2213;SDS011;1113;42.018;23.986;2023-07-29T10:14:55;4.33;;;2.47;;
2213;SDS011;1113;42.018;23.986;2023-07-29T10:17:27;3.40;;;2.20;;
2213;SDS011;1113;42.018;23.986;2023-07-29T10:19:54;2.47;;;1.83;;
2213;SDS011;1113;42.018;23.986;2023-07-29T10:22:22;6.30;;;2.83;;
2213;SDS011;1113;42.018;23.986;2023-07-29T10:24:50;3.70;;;2.67;;
2213;SDS011;1113;42.018;23.986;2023-07-29T10:27:18;3.60;;;2.50;;
2213;SDS011;1113;42.018;23.986;2023-07-29T10:29:45;3.53;;;2.40;;
2213;SDS011;1113;42.018;23.986;2023-07-29T10:32:12;4.87;;;2.40;;
2213;SDS011;1113;42.018;23.986;2023-07-29T10:34:41;2.90;;;2.60;;
2213;SDS011;1113;42.018;23.986;2023-07-29T10:37:09;5.70;;;2.37;;
2213;SDS011;1113;42.018;23.986;2023-07-29T10:39:39;4.27;;;2.80;;
2213;SDS011;1113;42.018;23.986;2023-07-29T10:42:08;3.90;;;2.40;;
2213;SDS011;1113;42.018;23.986;2023-07-29T10:44:47;3.17;;;2.27;;
2213;SDS011;1113;42.018;23.986;2023-07-29T10:47:16;2.80;;;2.30;;
2213;SDS011;1113;42.018;23.986;2023-07-29T10:49:45;3.90;;;2.07;;
2213;SDS011;1113;42.018;23.986;2023-07-29T10:52:13;3.00;;;2.10;;
2213;SDS011;1113;42.018;23.986;2023-07-29T10:54:43;8.27;;;2.60;;
2213;SDS011;1113;42.018;23.986;2023-07-29T10:57:14;6.00;;;2.50;;
2213;SDS011;1113;42.018;23.986;2023-07-29T10:59:41;2.87;;;2.30;;
2213;SDS011;1113;42.018;23.986;2023-07-29T11:02:19;4.17;;;2.40;;
2213;SDS011;1113;42.018;23.986;2023-07-29T11:04:48;3.10;;;2.30;;
2213;SDS011;1113;42.018;23.986;2023-07-29T11:07:20;3.90;;;2.20;;
2213;SDS011;1113;42.018;23.986;2023-07-29T11:09:55;3.20;;;2.27;;
2213;SDS011;1113;42.018;23.986;2023-07-29T11:12:38;3.70;;;2.47;;
2213;SDS011;1113;42.018;23.986;2023-07-29T11:15:14;12.10;;;3.03;;
2213;SDS011;1113;42.018;23.986;2023-07-29T11:17:42;3.30;;;2.50;;
2213;SDS011;1113;42.018;23.986;2023-07-29T11:20:11;3.30;;;2.37;;
2213;SDS011;1113;42.018;23.986;2023-07-29T11:22:38;2.90;;;2.43;;
2213;SDS011;1113;42.018;23.986;2023-07-29T11:25:06;3.57;;;2.37;;
2213;SDS011;1113;42.018;23.986;2023-07-29T11:27:34;16.20;;;3.20;;
2213;SDS011;1113;42.018;23.986;2023-07-29T11:30:01;3.17;;;2.20;;
2213;SDS011;1113;42.018;23.986;2023-07-29T11:32:30;2.83;;;2.40;;
2213;SDS011;1113;42.018;23.986;2023-07-29T11:35:00;6.70;;;2.63;;
2213;SDS011;1113;42.018;23.986;2023-07-29T11:37:29;3.50;;;2.53;;
2213;SDS011;1113;42.018;23.986;2023-07-29T11:39:56;3.33;;;2.50;;
2213;SDS011;1113;42.018;23.986;2023-07-29T11:42:23;3.67;;;2.27;;
2213;SDS011;1113;42.018;23.986;2023-07-29T11:44:50;2.80;;;2.40;;
2213;SDS011;1113;42.018;23.986;2023-07-29T11:47:17;4.10;;;2.23;;
2213;SDS011;1113;42.018;23.986;2023-07-29T11:49:44;3.77;;;2.33;;
2213;SDS011;1113;42.018;23.986;2023-07-29T11:52:11;2.73;;;2.10;;
2213;SDS011;1113;42.018;23.986;2023-07-29T11:54:40;3.60;;;2.27;;
2213;SDS011;1113;42.018;23.986;2023-07-29T11:57:08;16.80;;;3.43;;
2213;SDS011;1113;42.018;23.986;2023-07-29T11:59:35;5.00;;;2.40;;
2213;SDS011;1113;42.018;23.986;2023-07-29T12:02:05;2.73;;;2.10;;
2213;SDS011;1113;42.018;23.986;2023-07-29T12:04:32;2.50;;;2.10;;
2213;SDS011;1113;42.018;23.986;2023-07-29T12:07:00;3.07;;;2.47;;
2213;SDS011;1113;42.018;23.986;2023-07-29T12:09:27;3.10;;;2.37;;
2213;SDS011;1113;42.018;23.986;2023-07-29T12:11:55;3.97;;;2.80;;
2213;SDS011;1113;42.018;23.986;2023-07-29T12:14:25;3.80;;;2.23;;
2213;SDS011;1113;42.018;23.986;2023-07-29T12:16:52;4.30;;;2.40;;
2213;SDS011;1113;42.018;23.986;2023-07-29T12:19:19;3.20;;;2.50;;
2213;SDS011;1113;42.018;23.986;2023-07-29T12:21:47;4.23;;;2.20;;
2213;SDS011;1113;42.018;23.986;2023-07-29T12:24:14;4.40;;;2.70;;
2213;SDS011;1113;42.018;23.986;2023-07-29T12:26:41;3.13;;;2.30;;
2213;SDS011;1113;42.018;23.986;2023-07-29T12:29:13;5.73;;;2.77;;
2213;SDS011;1113;42.018;23.986;2023-07-29T12:31:40;3.50;;;2.90;;
2213;SDS011;1113;42.018;23.986;2023-07-29T12:34:07;4.13;;;2.77;;
2213;SDS011;1113;42.018;23.986;2023-07-29T12:36:41;3.70;;;2.83;;
2213;SDS011;1113;42.018;23.986;2023-07-29T12:39:15;2.90;;;2.23;;
2213;SDS011;1113;42.018;23.986;2023-07-29T12:41:42;3.40;;;2.47;;
2213;SDS011;1113;42.018;23.986;2023-07-29T12:44:09;4.87;;;2.50;;
2213;SDS011;1113;42.018;23.986;2023-07-29T12:46:37;3.00;;;2.17;;
2213;SDS011;1113;42.018;23.986;2023-07-29T12:49:04;5.93;;;2.43;;
2213;SDS011;1113;42.018;23.986;2023-07-29T12:51:31;3.47;;;2.40;;
2213;SDS011;1113;42.018;23.986;2023-07-29T12:53:59;3.00;;;2.27;;
2213;SDS011;1113;42.018;23.986;2023-07-29T12:56:26;2.57;;;1.87;;
2213;SDS011;1113;42.018;23.986;2023-07-29T12:58:53;4.20;;;2.60;;
2213;SDS011;1113;42.018;23.986;2023-07-29T13:01:20;4.70;;;2.47;;
2213;SDS011;1113;42.018;23.986;2023-07-29T13:03:49;3.03;;;2.53;;
2213;SDS011;1113;42.018;23.986;2023-07-29T13:06:16;2.83;;;2.13;;
2213;SDS011;1113;42.018;23.986;2023-07-29T13:08:43;10.40;;;3.00;;
2213;SDS011;1113;42.018;23.986;2023-07-29T13:11:11;7.47;;;2.37;;
2213;SDS011;1113;42.018;23.986;2023-07-29T13:13:38;3.33;;;2.10;;
2213;SDS011;1113;42.018;23.986;2023-07-29T13:16:05;5.03;;;2.27;;
2213;SDS011;1113;42.018;23.986;2023-07-29T13:18:32;4.57;;;2.70;;
2213;SDS011;1113;42.018;23.986;2023-07-29T13:21:01;3.80;;;2.40;;
2213;SDS011;1113;42.018;23.986;2023-07-29T13:23:28;4.53;;;2.43;;
2213;SDS011;1113;42.018;23.986;2023-07-29T13:25:55;2.80;;;2.37;;
2213;SDS011;1113;42.018;23.986;2023-07-29T13:28:22;3.03;;;1.93;;
2213;SDS011;1113;42.018;23.986;2023-07-29T13:30:49;2.60;;;2.17;;
2213;SDS011;1113;42.018;23.986;2023-07-29T13:33:16;5.97;;;2.50;;
2213;SDS011;1113;42.018;23.986;2023-07-29T13:35:45;4.70;;;2.10;;
2213;SDS011;1113;42.018;23.986;2023-07-29T13:38:14;2.70;;;2.40;;
2213;SDS011;1113;42.018;23.986;2023-07-29T13:40:41;2.83;;;2.30;;
2213;SDS011;1113;42.018;23.986;2023-07-29T13:43:08;2.80;;;1.87;;
2213;SDS011;1113;42.018;23.986;2023-07-29T13:45:35;4.20;;;2.43;;
2213;SDS011;1113;42.018;23.986;2023-07-29T13:48:02;2.60;;;1.90;;
2213;SDS011;1113;42.018;23.986;2023-07-29T13:50:29;15.00;;;3.30;;
2213;SDS011;1113;42.018;23.986;2023-07-29T13:52:56;7.60;;;2.23;;
2213;SDS011;1113;42.018;23.986;2023-07-29T13:55:25;2.70;;;2.10;;
2213;SDS011;1113;42.018;23.986;2023-07-29T13:57:52;3.50;;;2.27;;
2213;SDS011;1113;42.018;23.986;2023-07-29T14:00:19;6.20;;;1.97;;
2213;SDS011;1113;42.018;23.986;2023-07-29T14:02:46;2.80;;;2.20;;
2213;SDS011;1113;42.018;23.986;2023-07-29T14:05:13;3.33;;;2.20;;
2213;SDS011;1113;42.018;23.986;2023-07-29T14:07:40;4.67;;;2.30;;
2213;SDS011;1113;42.018;23.986;2023-07-29T14:10:07;18.20;;;3.30;;
2213;SDS011;1113;42.018;23.986;2023-07-29T14:12:35;3.90;;;2.20;;
2213;SDS011;1113;42.018;23.986;2023-07-29T14:15:03;3.07;;;1.87;;
2213;SDS011;1113;42.018;23.986;2023-07-29T14:17:30;7.23;;;2.57;;
2213;SDS011;1113;42.018;23.986;2023-07-29T14:19:57;3.63;;;1.93;;
2213;SDS011;1113;42.018;23.986;2023-07-29T14:22:24;3.90;;;1.77;;
2213;SDS011;1113;42.018;23.986;2023-07-29T14:24:51;3.23;;;1.83;;
2213;SDS011;1113;42.018;23.986;2023-07-29T14:27:18;3.67;;;2.17;;
2213;SDS011;1113;42.018;23.986;2023-07-29T14:29:46;5.87;;;2.90;;
2213;SDS011;1113;42.018;23.986;2023-07-29T14:32:13;3.63;;;2.27;;
2213;SDS011;1113;42.018;23.986;2023-07-29T14:34:40;3.60;;;2.27;;
2213;SDS011;1113;42.018;23.986;2023-07-29T14:37:07;5.40;;;1.87;;
2213;SDS011;1113;42.018;23.986;2023-07-29T14:39:34;8.23;;;2.90;;
2213;SDS011;1113;42.018;23.986;2023-07-29T14:42:01;6.13;;;2.00;;
2213;SDS011;1113;42.018;23.986;2023-07-29T14:44:28;3.93;;;1.83;;
2213;SDS011;1113;42.018;23.986;2023-07-29T14:46:57;3.00;;;1.80;;
2213;SDS011;1113;42.018;23.986;2023-07-29T14:49:26;3.70;;;2.10;;
2213;SDS011;1113;42.018;23.986;2023-07-29T14:51:54;2.63;;;1.90;;
2213;SDS011;1113;42.018;23.986;2023-07-29T14:54:21;3.00;;;1.53;;
2213;SDS011;1113;42.018;23.986;2023-07-29T14:56:48;4.90;;;1.83;;
2213;SDS011;1113;42.018;23.986;2023-07-29T14:59:15;2.70;;;1.73;;